CheckWX is a tool to help pilots better visualize weather data.  It is not intended as a substitute for an official pre-flight weather briefing.

12:40:37 UTC

KDXR METAR
Danbury Municipal Airport
Danbury, Connecticut, USA
Current

48 mins ago

KDXR 251153Z 36006KT 10SM BKN075 OVC090 08/M04 A3004 RMK AO2 SLP172 T00781039 10100 20078 53011
Observed
Mar-25 @ 11:53 UTC
Wind
  • 360° at 6 KTS
Visibility
10 SM
Flight Rules
VFR
Cloud Levels
  • Broken at 7,500' AGL
  • Overcast at 9,000' AGL
Temperature
C / 46°F
Dewpoint
-4°C / 25°F
Humidity
43%
Altimeter
30.04" Hg
Pressure
1017.2 hPa
Previous

2 hours ago

KDXR 251053Z 31004KT 10SM BKN100 OVC120 08/M04 A3001 RMK AO2 SLP161 T00831039
Observed
Mar-25 @ 10:53 UTC
Wind
  • 310° at 4 KTS
Visibility
10 SM
Flight Rules
VFR
Cloud Levels
  • Broken at 10,000' AGL
  • Overcast at 12,000' AGL
Temperature
C / 46°F
Dewpoint
-4°C / 25°F
Humidity
43%
Altimeter
30.01" Hg
Pressure
1016.1 hPa
Previous

3 hours ago

KDXR 250953Z AUTO VRB05KT 10SM SCT090 BKN120 09/M04 A3000 RMK AO2 SLP159 T00891044
Observed
Mar-25 @ 09:53 UTC
Wind
  • Variable at 5 KTS
Visibility
10 SM
Flight Rules
VFR
Cloud Levels
  • Scattered at 9,000' AGL
  • Broken at 12,000' AGL
Temperature
C / 48°F
Dewpoint
-4°C / 25°F
Humidity
40%
Altimeter
30" Hg
Pressure
1015.9 hPa